Time;durP1;ratioP1;P1;durP2;ratioP2;P2;SDS_P1;SDS_P2;PMS_P1;PMS_P2;Temp;Humidity;BMP_temperature;BMP_pressure;BME280_temperature;BME280_humidity;BME280_pressure;Samples;Min_cycle;Max_cycle;Signal;HPM_P1;HPM_P2
2023/09/09 00:00:30;;;;;;;0.70;0.70;;;;;;;16.77;96.28;97389.81;5083600;28;20192;-62
2023/09/09 00:02:57;;;;;;;0.70;0.70;;;;;;;16.54;96.44;97373.47;5083949;28;20139;-63
2023/09/09 00:05:28;;;;;;;0.70;0.70;;;;;;;16.68;96.53;97383.84;5083731;28;20141;-62
2023/09/09 00:07:55;;;;;;;0.70;0.70;;;;;;;16.37;96.08;97340.72;5086954;28;20044;-62
2023/09/09 00:10:22;;;;;;;0.70;0.70;;;;;;;16.56;96.85;97395.44;5086443;28;20074;-63
2023/09/09 00:12:48;;;;;;;0.70;0.70;;;;;;;16.28;96.60;97340.28;5065815;28;20056;-62
2023/09/09 00:15:15;;;;;;;0.60;0.60;;;;;;;16.49;96.07;97390.66;5055782;28;20064;-61
2023/09/09 00:17:42;;;;;;;0.63;0.63;;;;;;;16.46;96.34;97383.06;5066476;28;20056;-63
2023/09/09 00:20:11;;;;;;;0.70;0.70;;;;;;;16.40;96.86;97379.03;5066984;28;20419;-62
2023/09/09 00:22:38;;;;;;;0.70;0.70;;;;;;;16.44;95.43;97384.63;5067391;28;20400;-62
2023/09/09 00:25:06;;;;;;;0.70;0.70;;;;;;;16.47;95.02;97386.66;5067234;28;20048;-63
2023/09/09 00:27:32;;;;;;;0.60;0.60;;;;;;;16.32;96.19;97366.25;5066751;28;20139;-62
2023/09/09 00:29:59;;;;;;;0.70;0.70;;;;;;;16.47;95.51;97381.84;5067011;28;20057;-62
2023/09/09 00:32:26;;;;;;;0.63;0.63;;;;;;;16.46;94.83;97383.06;5066758;28;20187;-62
2023/09/09 00:34:52;;;;;;;0.70;0.70;;;;;;;16.43;95.23;97378.25;5066982;28;20044;-62
2023/09/09 00:37:19;;;;;;;0.60;0.60;;;;;;;16.42;95.83;97387.81;5066155;28;20049;-62
2023/09/09 00:39:46;;;;;;;0.70;0.70;;;;;;;16.38;96.34;97389.81;5066886;28;20051;-63
2023/09/09 00:42:13;;;;;;;0.63;0.63;;;;;;;16.08;95.90;97344.69;5066594;28;20045;-62
2023/09/09 00:44:40;;;;;;;0.60;0.60;;;;;;;16.31;96.02;97395.41;5066197;28;20588;-62
2023/09/09 00:47:08;;;;;;;0.60;0.60;;;;;;;16.26;95.72;97389.44;5065076;28;20165;-63
2023/09/09 00:49:35;;;;;;;0.75;0.75;;;;;;;16.14;96.69;97381.41;5066355;28;20434;-62
2023/09/09 00:52:02;;;;;;;0.70;0.70;;;;;;;15.74;96.14;97315.53;5066333;28;20064;-63
2023/09/09 00:54:29;;;;;;;0.60;0.60;;;;;;;15.76;95.95;97327.09;5064920;28;20159;-62
2023/09/09 00:57:00;;;;;;;0.65;0.65;;;;;;;16.10;95.97;97375.84;5066052;28;20426;-62
2023/09/09 00:59:27;;;;;;;0.60;0.60;;;;;;;15.92;96.03;97355.47;5064586;28;20127;-62
2023/09/09 01:01:55;;;;;;;0.70;0.70;;;;;;;15.72;95.93;97320.72;5066147;28;20048;-62
2023/09/09 01:04:22;;;;;;;0.60;0.60;;;;;;;16.02;96.10;97374.25;5066349;28;20531;-62
2023/09/09 01:06:49;;;;;;;0.60;0.60;;;;;;;16.04;96.14;97374.66;5066114;28;20066;-63
2023/09/09 01:09:16;;;;;;;0.60;0.60;;;;;;;15.99;95.27;97375.03;5066113;28;20051;-62
2023/09/09 01:11:43;;;;;;;0.70;0.70;;;;;;;15.96;95.03;97370.25;5077571;28;20052;-62
2023/09/09 01:14:11;;;;;;;0.60;0.60;;;;;;;15.98;94.65;97365.03;5086990;28;20473;-62
2023/09/09 01:16:38;;;;;;;0.68;0.68;;;;;;;15.44;95.73;97303.94;5084614;28;20087;-62
2023/09/09 01:19:07;;;;;;;0.70;0.70;;;;;;;15.63;96.12;97317.53;5084300;28;20070;-62
2023/09/09 01:21:35;;;;;;;0.70;0.70;;;;;;;15.94;95.81;97367.03;5086106;28;20056;-62
2023/09/09 01:24:02;;;;;;;0.70;0.70;;;;;;;15.88;95.16;97351.88;5085895;28;20055;-63
2023/09/09 01:26:29;;;;;;;0.60;0.60;;;;;;;15.98;95.47;97367.84;5085782;28;20078;-64
2023/09/09 01:28:56;;;;;;;0.65;0.65;;;;;;;16.01;95.58;97367.03;5085658;28;20056;-62
2023/09/09 01:31:23;;;;;;;0.70;0.70;;;;;;;16.02;94.78;97368.66;5084492;28;20083;-62
2023/09/09 01:33:55;;;;;;;0.60;0.60;;;;;;;16.06;94.21;97363.84;5085999;28;20377;-64
2023/09/09 01:36:22;;;;;;;0.70;0.70;;;;;;;15.72;93.94;97314.31;5085667;28;20048;-64
2023/09/09 01:38:48;;;;;;;0.60;0.60;;;;;;;15.90;94.47;97338.28;5085452;28;20056;-62
2023/09/09 01:41:15;;;;;;;0.60;0.60;;;;;;;15.68;95.76;97359.00;5085727;28;20059;-63
2023/09/09 01:43:41;;;;;;;0.60;0.60;;;;;;;15.59;97.55;97349.41;5085175;28;20060;-62
2023/09/09 01:46:08;;;;;;;0.60;0.60;;;;;;;15.69;97.57;97346.66;5085531;28;20088;-63
2023/09/09 01:48:37;;;;;;;0.60;0.60;;;;;;;15.64;98.05;97352.63;5085343;28;20051;-62
2023/09/09 01:51:05;;;;;;;0.70;0.70;;;;;;;15.75;96.65;97342.28;5085536;28;20070;-62
2023/09/09 01:53:32;;;;;;;0.70;0.70;;;;;;;15.87;96.37;97346.69;5084117;28;20155;-62
2023/09/09 01:55:58;;;;;;;0.60;0.60;;;;;;;15.92;95.85;97352.66;5085434;28;20055;-63
2023/09/09 01:58:25;;;;;;;0.60;0.60;;;;;;;15.28;99.53;97345.31;5085561;28;20560;-61
2023/09/09 02:00:52;;;;;;;0.60;0.60;;;;;;;15.50;99.18;97341.44;5085152;28;20117;-62
2023/09/09 02:03:19;;;;;;;0.60;0.60;;;;;;;15.54;99.06;97339.44;5085473;28;20560;-61
2023/09/09 02:05:45;;;;;;;0.68;0.68;;;;;;;14.97;99.52;97256.69;5083697;28;20048;-62
2023/09/09 02:08:12;;;;;;;0.70;0.70;;;;;;;15.14;98.85;97265.13;5085494;28;20113;-62
2023/09/09 02:10:39;;;;;;;0.60;0.60;;;;;;;15.75;97.54;97347.84;5082425;28;20044;-62
2023/09/09 02:13:06;;;;;;;0.60;0.60;;;;;;;15.65;97.69;97348.63;5063421;28;20074;-62
2023/09/09 02:15:33;;;;;;;0.70;0.70;;;;;;;15.65;97.45;97347.84;5064459;28;20586;-62
2023/09/09 02:17:59;;;;;;;0.60;0.60;;;;;;;15.58;97.08;97345.84;5064736;28;20087;-62
2023/09/09 02:20:26;;;;;;;0.60;0.60;;;;;;;15.49;97.66;97350.97;5065278;28;20576;-63
2023/09/09 02:22:53;;;;;;;0.70;0.70;;;;;;;14.78;96.87;97240.28;5065231;28;20131;-63
2023/09/09 02:25:20;;;;;;;0.60;0.60;;;;;;;15.31;97.86;97338.94;5064558;28;20068;-62
2023/09/09 02:27:47;;;;;;;0.60;0.60;;;;;;;14.94;98.16;97279.81;5063085;28;20492;-64
2023/09/09 02:30:13;;;;;;;0.60;0.60;;;;;;;15.35;99.00;97345.31;5062372;28;20054;-62
2023/09/09 02:32:43;;;;;;;0.68;0.68;;;;;;;15.08;99.35;97318.91;5064608;28;20052;-63
2023/09/09 02:35:10;;;;;;;0.68;0.68;;;;;;;15.14;100.00;97339.69;5064455;28;20133;-61
2023/09/09 02:37:37;;;;;;;0.60;0.60;;;;;;;14.82;99.70;97277.38;5064541;28;20059;-62
2023/09/09 02:40:04;;;;;;;0.60;0.60;;;;;;;15.27;98.76;97331.75;5063091;28;20087;-62
2023/09/09 02:42:31;;;;;;;0.60;0.60;;;;;;;15.26;99.84;97335.72;5064538;28;20048;-62
2023/09/09 02:44:58;;;;;;;0.60;0.60;;;;;;;15.32;99.11;97337.75;5064411;28;20048;-61
2023/09/09 02:47:24;;;;;;;0.60;0.60;;;;;;;15.29;99.61;97338.53;5062746;28;20049;-62
2023/09/09 02:49:51;;;;;;;0.60;0.60;;;;;;;15.02;100.00;97284.22;5064471;28;20070;-61
2023/09/09 02:52:20;;;;;;;0.60;0.60;;;;;;;15.35;99.30;97339.75;5062472;28;20595;-61
2023/09/09 02:54:47;;;;;;;0.60;0.60;;;;;;;15.23;99.59;97328.94;5064394;28;20072;-62
2023/09/09 02:57:13;;;;;;;0.65;0.65;;;;;;;15.08;100.00;97330.06;5064248;28;20052;-61
2023/09/09 02:59:40;;;;;;;0.60;0.60;;;;;;;14.84;98.58;97286.16;5062485;28;20059;-62
2023/09/09 03:02:07;;;;;;;0.60;0.60;;;;;;;14.60;97.59;97245.00;5064282;28;20059;-62
2023/09/09 03:04:33;;;;;;;0.60;0.60;;;;;;;14.75;98.19;97277.34;5063898;28;20053;-62
2023/09/09 03:07:00;;;;;;;0.60;0.60;;;;;;;15.06;98.70;97326.91;5063892;28;20135;-61
2023/09/09 03:09:29;;;;;;;0.60;0.60;;;;;;;14.76;98.41;97324.34;5079272;28;20056;-62
2023/09/09 03:11:56;;;;;;;0.60;0.60;;;;;;;14.83;98.36;97329.16;5071452;28;20510;-62
2023/09/09 03:14:24;;;;;;;0.60;0.60;;;;;;;14.80;98.05;97324.38;5084206;28;20373;-61
2023/09/09 03:16:50;;;;;;;0.60;0.60;;;;;;;14.69;97.92;97306.78;5083495;28;20553;-64
2023/09/09 03:19:17;;;;;;;0.50;0.50;;;;;;;14.86;97.82;97328.38;5082051;28;20056;-61
2023/09/09 03:21:44;;;;;;;0.52;0.52;;;;;;;13.84;100.00;97326.84;5083343;28;20058;-62
2023/09/09 03:24:10;;;;;;;0.52;0.52;;;;;;;14.11;100.00;97322.72;5082687;28;20450;-62
2023/09/09 03:26:37;;;;;;;0.60;0.60;;;;;;;13.98;100.00;97268.47;5083917;28;20097;-61
2023/09/09 03:29:04;;;;;;;0.60;0.60;;;;;;;14.09;100.00;97339.81;5084212;28;20592;-62
2023/09/09 03:31:30;;;;;;;0.50;0.50;;;;;;;13.80;100.00;97320.47;5082353;28;20060;-61
2023/09/09 03:33:57;;;;;;;0.52;0.52;;;;;;;14.00;100.00;97324.63;5082799;28;20050;-62
2023/09/09 03:36:24;;;;;;;0.60;0.60;;;;;;;14.17;100.00;97319.19;5082445;28;20079;-61
2023/09/09 03:38:51;;;;;;;0.60;0.60;;;;;;;14.42;100.00;97324.94;5082298;28;20071;-62
2023/09/09 03:41:17;;;;;;;0.52;0.52;;;;;;;14.47;100.00;97332.94;5085933;28;20063;-62
2023/09/09 03:43:44;;;;;;;0.60;0.60;;;;;;;14.56;100.00;97331.41;5087970;28;20048;-62
2023/09/09 03:46:11;;;;;;;0.63;0.63;;;;;;;14.66;100.00;97335.44;5087722;28;20476;-63
2023/09/09 03:48:37;;;;;;;0.60;0.60;;;;;;;14.54;100.00;97316.28;5087762;28;20076;-62
2023/09/09 03:51:04;;;;;;;0.60;0.60;;;;;;;14.59;100.00;97322.25;5087558;28;20134;-62
2023/09/09 03:53:31;;;;;;;0.60;0.60;;;;;;;14.67;100.00;97328.69;5087706;28;20044;-63
2023/09/09 03:56:00;;;;;;;0.60;0.60;;;;;;;14.70;100.00;97325.13;5086271;28;20245;-61
2023/09/09 03:58:27;;;;;;;0.60;0.60;;;;;;;14.76;100.00;97329.16;5087215;28;20056;-63
2023/09/09 04:01:07;;;;;;;0.60;0.60;;;;;;;14.41;100.00;97295.47;5087221;28;20050;-62
2023/09/09 04:03:36;;;;;;;0.60;0.60;;;;;;;14.77;100.00;97330.72;5087346;28;20103;-62
2023/09/09 04:06:07;;;;;;;0.60;0.60;;;;;;;14.85;99.70;97326.78;5087528;28;20055;-63
2023/09/09 04:08:35;;;;;;;0.60;0.60;;;;;;;14.37;98.96;97277.97;5086294;28;20522;-62
2023/09/09 04:11:03;;;;;;;0.63;0.63;;;;;;;14.48;100.00;97279.59;5084432;28;20048;-62
2023/09/09 04:13:30;;;;;;;0.55;0.55;;;;;;;14.46;99.25;97256.09;5067384;28;20060;-62
2023/09/09 04:15:58;;;;;;;0.60;0.60;;;;;;;14.90;99.58;97323.63;5065688;28;20251;-62
2023/09/09 04:18:26;;;;;;;0.60;0.60;;;;;;;14.89;99.09;97317.25;5066979;28;20092;-62
2023/09/09 04:21:11;;;;;;;0.60;0.60;;;;;;;14.95;99.27;97337.22;5067008;28;20093;-62
2023/09/09 04:23:37;;;;;;;0.60;0.60;;;;;;;15.01;99.75;97330.88;5067269;28;20052;-62
2023/09/09 04:26:06;;;;;;;0.60;0.60;;;;;;;15.12;98.88;97333.69;5065085;28;20044;-61
2023/09/09 04:28:33;;;;;;;0.60;0.60;;;;;;;15.13;99.62;97332.47;5065272;28;20484;-62
2023/09/09 04:30:59;;;;;;;0.70;0.70;;;;;;;15.11;100.00;97332.09;5065065;28;20072;-61
2023/09/09 04:33:26;;;;;;;0.60;0.60;;;;;;;15.22;99.00;97340.50;5064956;28;20506;-62
2023/09/09 04:35:53;;;;;;;0.70;0.70;;;;;;;15.32;98.45;97340.53;5066505;28;20052;-62
2023/09/09 04:38:21;;;;;;;0.60;0.60;;;;;;;15.44;97.45;97343.00;5065426;28;20086;-62
2023/09/09 04:40:47;;;;;;;0.70;0.70;;;;;;;15.37;97.84;97339.34;5066594;28;20052;-62
2023/09/09 04:43:14;;;;;;;0.63;0.63;;;;;;;15.56;97.28;97342.63;5064842;28;20063;-63
2023/09/09 04:45:41;;;;;;;0.60;0.60;;;;;;;15.70;95.43;97345.44;5066099;28;20124;-62
2023/09/09 04:48:08;;;;;;;0.60;0.60;;;;;;;15.81;94.92;97345.47;5066497;28;20048;-62
2023/09/09 04:50:35;;;;;;;0.70;0.70;;;;;;;15.93;94.45;97348.66;5066227;28;20511;-63
2023/09/09 04:53:02;;;;;;;0.70;0.70;;;;;;;15.99;94.15;97340.69;5065650;28;20041;-62
2023/09/09 04:55:29;;;;;;;0.63;0.63;;;;;;;16.07;94.02;97329.13;5064884;28;20048;-64
2023/09/09 04:57:56;;;;;;;0.70;0.70;;;;;;;15.97;93.07;97293.59;5064988;28;20624;-62
2023/09/09 05:00:22;;;;;;;0.70;0.70;;;;;;;16.35;91.89;97343.09;5066164;28;20141;-62
2023/09/09 05:02:49;;;;;;;0.70;0.70;;;;;;;16.31;92.97;97336.69;5066519;28;20052;-63
2023/09/09 05:05:16;;;;;;;0.65;0.65;;;;;;;16.34;92.89;97338.69;5066037;28;20053;-62
2023/09/09 05:07:43;;;;;;;0.70;0.70;;;;;;;16.51;93.22;97340.72;5064206;28;20067;-63
2023/09/09 05:10:09;;;;;;;0.60;0.60;;;;;;;16.21;92.95;97276.03;5065295;28;20041;-62
2023/09/09 05:12:36;;;;;;;0.70;0.70;;;;;;;16.67;91.67;97322.69;5079044;28;20143;-63
2023/09/09 05:15:06;;;;;;;0.70;0.70;;;;;;;16.83;92.22;97331.44;5086476;28;20131;-62
2023/09/09 05:17:33;;;;;;;0.70;0.70;;;;;;;16.21;92.17;97248.06;5086436;28;20048;-62
2023/09/09 05:20:00;;;;;;;0.80;0.80;;;;;;;16.79;91.49;97339.06;5084403;28;20060;-63
2023/09/09 05:22:27;;;;;;;0.70;0.70;;;;;;;17.03;91.31;97343.78;5085974;28;20654;-61
2023/09/09 05:24:54;;;;;;;0.70;0.70;;;;;;;17.09;90.75;97342.13;5085855;28;20084;-61
2023/09/09 05:27:20;;;;;;;0.70;0.70;;;;;;;17.26;90.21;97341.31;5084510;28;20059;-62
2023/09/09 05:29:47;;;;;;;0.80;0.80;;;;;;;17.22;90.99;97329.28;5085762;28;20052;-62
2023/09/09 05:32:15;;;;;;;0.70;0.70;;;;;;;17.09;90.63;97291.75;5085662;28;20453;-62
2023/09/09 05:34:42;;;;;;;0.70;0.70;;;;;;;17.48;90.54;97337.22;5083924;28;20056;-62
2023/09/09 05:37:09;;;;;;;0.73;0.73;;;;;;;17.19;90.38;97266.53;5085404;28;20059;-63
2023/09/09 05:39:35;;;;;;;0.70;0.70;;;;;;;17.77;89.69;97325.44;5085651;28;20052;-62
2023/09/09 05:42:05;;;;;;;0.73;0.73;;;;;;;17.73;89.43;97295.84;5083944;28;20067;-63
2023/09/09 05:44:36;;;;;;;0.73;0.73;;;;;;;17.86;88.77;97296.94;5085378;28;20052;-62
2023/09/09 05:47:05;;;;;;;0.80;0.80;;;;;;;18.22;88.61;97325.50;5085485;28;20060;-62
2023/09/09 05:49:32;;;;;;;0.70;0.70;;;;;;;18.48;88.59;97328.47;5085144;28;20088;-62
2023/09/09 05:52:06;;;;;;;0.70;0.70;;;;;;;18.71;86.52;97325.88;5085780;28;20062;-61
2023/09/09 05:54:33;;;;;;;0.80;0.80;;;;;;;18.59;85.19;97317.94;5080357;28;20059;-63
2023/09/09 05:57:00;;;;;;;0.88;0.88;;;;;;;18.53;85.39;97245.88;5081540;28;20134;-64
2023/09/09 05:59:27;;;;;;;0.80;0.80;;;;;;;18.59;83.66;97233.78;5084080;28;20066;-64
2023/09/09 06:01:54;;;;;;;0.80;0.80;;;;;;;19.20;82.63;97319.69;5078838;28;20132;-64
2023/09/09 06:04:20;;;;;;;0.90;0.90;;;;;;;18.96;81.07;97250.59;5083052;28;20047;-60
2023/09/09 06:06:48;;;;;;;0.80;0.80;;;;;;;19.67;81.13;97325.50;5083933;28;20048;-64
2023/09/09 06:09:15;;;;;;;0.80;0.80;;;;;;;19.68;79.66;97299.00;5082545;28;20056;-61
2023/09/09 06:11:42;;;;;;;0.80;0.80;;;;;;;19.62;79.03;97286.66;5082929;28;20444;-61
2023/09/09 06:14:09;;;;;;;0.80;0.80;;;;;;;20.08;77.69;97324.09;5077402;28;20067;-60
2023/09/09 06:16:35;;;;;;;0.80;0.80;;;;;;;19.87;75.50;97278.63;5082200;28;20125;-62
2023/09/09 06:19:02;;;;;;;0.90;0.90;;;;;;;18.68;75.10;97068.53;5082358;28;20052;-65
2023/09/09 06:21:29;;;;;;;0.80;0.80;;;;;;;20.55;74.66;97319.31;5082499;28;20055;-63
2023/09/09 06:23:56;;;;;;;0.93;0.93;;;;;;;20.80;72.06;97325.28;5068026;28;20529;-62
2023/09/09 06:26:22;;;;;;;0.80;0.80;;;;;;;20.87;69.96;97325.16;5083190;28;20066;-61
2023/09/09 06:28:49;;;;;;;0.90;0.90;;;;;;;21.03;68.77;97328.09;5081444;28;20112;-64
2023/09/09 06:31:16;;;;;;;0.80;0.80;;;;;;;21.22;67.51;97324.50;5076358;28;20728;-61
2023/09/09 06:33:42;;;;;;;0.90;0.90;;;;;;;21.30;65.27;97325.13;5082123;28;20044;-62
2023/09/09 06:36:11;;;;;;;0.80;0.80;;;;;;;21.04;64.47;97273.31;5083128;28;20039;-60
2023/09/09 06:38:38;;;;;;;0.90;0.90;;;;;;;21.56;64.20;97319.31;5083619;28;20056;-62
2023/09/09 06:41:05;;;;;;;0.90;0.90;;;;;;;20.96;59.85;97274.69;5082424;28;20648;-67
2023/09/09 06:43:32;;;;;;;0.90;0.90;;;;;;;20.88;54.80;97222.56;5083382;28;20048;-65
2023/09/09 06:46:02;;;;;;;0.90;0.90;;;;;;;21.78;54.14;97326.09;5081784;28;20143;-64
2023/09/09 06:48:30;;;;;;;1.00;1.00;;;;;;;20.87;55.75;97190.75;5083832;28;20071;-67
2023/09/09 06:50:56;;;;;;;0.90;0.90;;;;;;;22.03;55.63;97329.19;5084002;28;20080;-68
2023/09/09 06:53:24;;;;;;;0.90;0.90;;;;;;;22.07;55.05;97324.22;5083485;28;20051;-62
2023/09/09 06:55:51;;;;;;;1.00;1.00;;;;;;;22.28;53.21;97328.56;5083057;28;20083;-66
2023/09/09 06:58:18;;;;;;;1.00;1.00;;;;;;;22.46;52.27;97328.94;5078700;28;20060;-61
2023/09/09 07:00:52;;;;;;;1.00;1.00;;;;;;;22.68;51.37;97335.66;5081064;28;20062;-61
2023/09/09 07:03:20;;;;;;;1.00;1.00;;;;;;;22.85;51.00;97322.28;5081982;28;20052;-63
2023/09/09 07:05:47;;;;;;;1.00;1.00;;;;;;;22.96;48.87;97322.78;5068491;28;20076;-64
2023/09/09 07:08:14;;;;;;;1.00;1.00;;;;;;;22.79;45.06;97284.53;5082100;28;20054;-63
2023/09/09 07:10:53;;;;;;;1.02;1.02;;;;;;;22.95;42.83;97309.91;5078700;28;20083;-65
2023/09/09 07:13:23;;;;;;;0.98;0.98;;;;;;;21.38;43.58;97064.44;5078337;28;20491;-63
2023/09/09 07:15:51;;;;;;;0.95;0.95;;;;;;;22.22;42.43;97212.56;5077717;28;20060;-63
2023/09/09 07:18:20;;;;;;;0.90;0.90;;;;;;;23.00;41.42;97306.56;5079832;28;20071;-62
2023/09/09 07:20:47;;;;;;;1.00;1.00;;;;;;;23.11;42.01;97307.06;5074733;28;20954;-63
2023/09/09 07:23:15;;;;;;;1.00;1.00;;;;;;;22.71;39.12;97288.78;5078182;28;20122;-64
2023/09/09 07:25:43;;;;;;;0.90;0.90;;;;;;;23.11;39.05;97312.72;5079077;28;20609;-62
2023/09/09 07:28:11;;;;;;;1.10;1.10;;;;;;;22.95;39.91;97253.41;5081754;28;20055;-64
2023/09/09 07:30:39;;;;;;;1.00;1.00;;;;;;;23.19;36.99;97305.63;5084049;28;20050;-60
2023/09/09 07:33:06;;;;;;;1.00;1.00;;;;;;;22.86;35.70;97225.78;5083201;28;20384;-65
2023/09/09 07:35:36;;;;;;;0.98;0.98;;;;;;;22.45;34.13;97203.91;5081047;28;20056;-63
2023/09/09 07:38:04;;;;;;;1.10;1.10;;;;;;;22.43;32.77;97217.66;5083811;28;20050;-63
2023/09/09 07:40:31;;;;;;;0.90;0.90;;;;;;;23.05;33.55;97257.94;5079200;28;20109;-64
2023/09/09 07:42:59;;;;;;;1.00;1.00;;;;;;;23.29;32.82;97296.84;5067707;28;20223;-61
2023/09/09 07:45:26;;;;;;;0.90;0.90;;;;;;;22.92;33.79;97299.50;5078693;28;20052;-65
2023/09/09 07:47:53;;;;;;;0.98;0.98;;;;;;;22.92;33.50;97255.06;5082491;28;20040;-63
2023/09/09 07:50:20;;;;;;;1.00;1.00;;;;;;;22.99;33.50;97231.47;5080250;28;20051;-60
2023/09/09 07:52:47;;;;;;;1.00;1.00;;;;;;;23.23;33.53;97199.66;5079897;28;20124;-60
2023/09/09 07:55:14;;;;;;;1.00;1.00;;;;;;;23.98;32.79;97298.00;5082203;28;20561;-61
2023/09/09 07:57:40;;;;;;;1.10;1.10;;;;;;;23.97;31.93;97296.41;5081848;28;20048;-61
2023/09/09 08:00:07;;;;;;;1.00;1.00;;;;;;;24.01;31.32;97280.13;5086634;28;20063;-63
2023/09/09 08:02:35;;;;;;;1.20;1.20;;;;;;;23.81;30.72;97288.00;5070559;28;20059;-63
2023/09/09 08:05:03;;;;;;;1.10;1.10;;;;;;;23.38;32.03;97256.59;5072849;28;20059;-62
2023/09/09 08:07:30;;;;;;;1.02;1.02;;;;;;;23.87;32.25;97286.19;5072008;28;20044;-66
2023/09/09 08:09:57;;;;;;;1.20;1.20;;;;;;;23.90;31.69;97293.75;5081043;28;20052;-67
2023/09/09 08:12:23;;;;;;;1.10;1.10;;;;;;;23.96;31.54;97289.16;5083516;28;20062;-66
2023/09/09 08:15:03;;;;;;;0.90;0.90;;;;;;;24.16;31.64;97286.91;5067128;28;20055;-67
2023/09/09 08:17:30;;;;;;;1.10;1.10;;;;;;;24.24;31.14;97287.44;5063064;28;20123;-69
2023/09/09 08:19:57;;;;;;;1.10;1.10;;;;;;;23.94;31.23;97285.97;5062941;28;20534;-67
2023/09/09 08:22:25;;;;;;;1.20;1.20;;;;;;;24.19;31.16;97297.31;5063332;28;20056;-69
2023/09/09 08:24:52;;;;;;;1.00;1.00;;;;;;;24.36;30.94;97290.28;5062532;28;20041;-67
2023/09/09 08:27:19;;;;;;;0.98;0.98;;;;;;;24.27;31.32;97290.19;5078605;28;20053;-67
2023/09/09 08:29:46;;;;;;;1.17;1.17;;;;;;;24.01;30.92;97271.63;5082077;28;20044;-68
2023/09/09 08:32:12;;;;;;;1.15;1.15;;;;;;;23.90;30.28;97296.59;5066524;28;20056;-68
2023/09/09 08:34:41;;;;;;;1.10;1.10;;;;;;;23.96;30.64;97294.81;5064954;28;20602;-67
2023/09/09 08:37:08;;;;;;;1.08;1.08;;;;;;;23.86;31.07;97282.59;5066089;28;20052;-68
2023/09/09 08:39:35;;;;;;;1.10;1.10;;;;;;;24.14;30.47;97289.38;5065823;28;20514;-68
2023/09/09 08:42:23;;;;;;;1.08;1.08;;;;;;;24.24;30.48;97296.75;5066196;28;20057;-68
2023/09/09 08:45:09;;;;;;;1.02;1.02;;;;;;;24.29;31.91;97293.34;5066018;28;20567;-66
2023/09/09 08:47:37;;;;;;;1.08;1.08;;;;;;;24.56;31.01;97287.19;5066238;28;20407;-67
2023/09/09 08:50:04;;;;;;;1.10;1.10;;;;;;;24.42;31.56;97209.13;5074041;28;20048;-67
2023/09/09 08:52:32;;;;;;;1.17;1.17;;;;;;;24.68;30.65;97256.00;5086255;28;20044;-66
2023/09/09 08:54:59;;;;;;;1.20;1.20;;;;;;;24.48;29.87;97246.97;5086569;28;20056;-66
2023/09/09 08:57:28;;;;;;;1.20;1.20;;;;;;;24.47;30.41;97216.28;5086323;28;20047;-66
2023/09/09 08:59:57;;;;;;;1.20;1.20;;;;;;;25.00;30.52;97295.38;5086108;28;20052;-66
2023/09/09 09:02:23;;;;;;;1.10;1.10;;;;;;;25.07;31.75;97283.75;5086242;28;20513;-67
2023/09/09 09:04:52;;;;;;;1.23;1.23;;;;;;;25.36;30.72;97288.41;5086099;28;20165;-67
2023/09/09 09:07:20;;;;;;;1.25;1.25;;;;;;;25.54;31.07;97294.22;5086336;28;20661;-66
2023/09/09 09:09:47;;;;;;;1.20;1.20;;;;;;;24.76;30.74;97285.69;5085582;28;20052;-66
2023/09/09 09:12:14;;;;;;;1.20;1.20;;;;;;;24.20;30.26;97269.81;5085866;28;20048;-66
2023/09/09 09:14:48;;;;;;;1.00;1.00;;;;;;;24.77;30.25;97287.25;5085749;28;20044;-67
2023/09/09 09:17:16;;;;;;;;;;;;;;;25.16;30.29;97283.84;5086417;28;20506;-68
2023/09/09 09:19:43;;;;;;;1.20;1.20;;;;;;;25.28;29.84;97280.13;5084054;28;19930;-67
2023/09/09 09:22:13;;;;;;;1.23;1.23;;;;;;;25.28;29.89;97203.56;5085839;28;20052;-67
2023/09/09 09:24:44;;;;;;;1.27;1.27;;;;;;;25.78;28.36;97264.09;5085669;28;20056;-65
2023/09/09 09:27:12;;;;;;;1.40;1.40;;;;;;;25.14;28.10;97221.13;5085821;28;20195;-66
2023/09/09 09:29:47;;;;;;;1.25;1.25;;;;;;;25.59;28.19;97283.06;5085202;28;20056;-65
2023/09/09 09:32:16;;;;;;;1.20;1.20;;;;;;;24.86;29.00;97210.84;5085604;28;20059;-66
2023/09/09 09:34:43;;;;;;;1.20;1.20;;;;;;;25.52;28.78;97262.66;5084179;28;20130;-65
2023/09/09 09:37:17;;;;;;;1.40;1.40;;;;;;;25.31;29.26;97245.19;5085365;28;20059;-66
2023/09/09 09:39:45;;;;;;;1.50;1.50;;;;;;;25.99;28.64;97260.38;5085274;28;20055;-64
2023/09/09 09:42:12;;;;;;;1.33;1.33;;;;;;;26.28;28.20;97263.69;5084998;28;20491;-65
2023/09/09 09:44:39;;;;;;;1.25;1.25;;;;;;;26.23;29.61;97261.44;5084892;28;20098;-65
2023/09/09 09:47:08;;;;;;;1.45;1.45;;;;;;;26.40;29.16;97254.22;5085043;28;20047;-65
2023/09/09 09:49:45;;;;;;;1.20;1.20;;;;;;;26.37;28.89;97250.28;5085748;28;20051;-63
2023/09/09 09:52:24;;;;;;;1.30;1.30;;;;;;;26.24;29.38;97257.38;5083471;28;20516;-64
2023/09/09 09:54:51;;;;;;;1.40;1.40;;;;;;;26.01;29.12;97152.84;5085012;28;20055;-64
2023/09/09 09:57:20;;;;;;;1.38;1.38;;;;;;;26.54;27.57;97242.28;5084824;28;20145;-64
2023/09/09 09:59:48;;;;;;;1.50;1.50;;;;;;;26.34;28.44;97239.06;5085183;28;20056;-64
2023/09/09 10:02:15;;;;;;;1.40;1.40;;;;;;;26.18;28.45;97247.84;5084780;28;20674;-64
2023/09/09 10:04:42;;;;;;;1.30;1.30;;;;;;;26.42;28.50;97251.72;5082973;28;20058;-66
2023/09/09 10:07:16;;;;;;;1.30;1.30;;;;;;;26.19;28.09;97249.44;5064476;28;20073;-64
2023/09/09 10:10:00;;;;;;;1.40;1.40;;;;;;;24.05;28.59;96941.13;5064526;28;20139;-65
2023/09/09 10:12:44;;;;;;;1.30;1.30;;;;;;;26.00;27.58;97247.81;5064605;28;20062;-64
2023/09/09 10:15:16;;;;;;;1.30;1.30;;;;;;;26.45;27.83;97245.09;5064341;28;20063;-65
2023/09/09 10:17:45;;;;;;;1.40;1.40;;;;;;;26.31;27.33;97186.84;5064401;28;20517;-64
2023/09/09 10:20:13;;;;;;;1.50;1.50;;;;;;;26.59;26.98;97233.09;5063924;28;20060;-64
2023/09/09 10:22:43;;;;;;;1.30;1.30;;;;;;;26.66;27.36;97235.69;5063031;28;20060;-64
2023/09/09 10:25:10;;;;;;;1.45;1.45;;;;;;;25.76;26.56;97204.94;5064263;28;20063;-64
2023/09/09 10:27:41;;;;;;;1.50;1.50;;;;;;;26.41;27.64;97231.03;5064270;28;20117;-64
2023/09/09 10:30:09;;;;;;;1.42;1.42;;;;;;;26.12;27.04;97238.38;5064334;28;20056;-65
2023/09/09 10:32:37;;;;;;;1.23;1.23;;;;;;;25.45;27.93;97189.19;5064479;28;20136;-64
2023/09/09 10:35:08;;;;;;;1.38;1.38;;;;;;;26.40;27.08;97231.50;5063832;28;20048;-64
2023/09/09 10:37:37;;;;;;;1.40;1.40;;;;;;;26.73;27.04;97232.53;5064123;28;20048;-64
2023/09/09 10:40:09;;;;;;;1.50;1.50;;;;;;;26.87;26.74;97197.00;5063695;28;20518;-63
2023/09/09 10:42:38;;;;;;;1.23;1.23;;;;;;;26.96;25.77;97217.69;5063821;28;20654;-63
2023/09/09 10:45:41;;;;;;;1.50;1.50;;;;;;;27.25;26.59;97217.19;5063357;28;20337;-63
2023/09/09 10:48:12;;;;;;;1.40;1.40;;;;;;;27.35;26.51;97213.06;5020969;28;20090;-64
2023/09/09 10:50:45;;;;;;;1.65;1.65;;;;;;;27.56;26.33;97210.03;5063065;28;20066;-64
2023/09/09 10:53:26;;;;;;;1.50;1.50;;;;;;;27.19;26.06;97151.59;5062905;28;20086;-64
2023/09/09 10:55:54;;;;;;;1.50;1.50;;;;;;;27.95;25.73;97203.25;5064242;28;20057;-64
2023/09/09 10:58:30;;;;;;;1.73;1.73;;;;;;;27.88;25.26;97206.44;5064044;28;20580;-65
2023/09/09 11:00:58;;;;;;;1.60;1.60;;;;;;;27.57;25.02;97183.13;5063685;28;20110;-65
2023/09/09 11:03:51;;;;;;;1.70;1.70;;;;;;;27.40;26.51;97201.84;5063877;28;20056;-64
2023/09/09 11:06:33;;;;;;;1.52;1.52;;;;;;;27.74;25.63;97198.56;5063433;28;20060;-64
2023/09/09 11:09:02;;;;;;;1.40;1.40;;;;;;;27.25;24.83;97194.44;5052361;28;20052;-66
2023/09/09 11:11:34;;;;;;;1.55;1.55;;;;;;;27.23;24.50;97159.97;5063596;28;20057;-65
2023/09/09 11:14:03;;;;;;;1.83;1.83;;;;;;;26.82;24.30;97098.91;5082681;28;20411;-65
2023/09/09 11:16:41;;;;;;;1.25;1.25;;;;;;;26.96;23.50;97180.72;5083556;28;20051;-64
2023/09/09 11:19:12;;;;;;;1.30;1.30;;;;;;;26.94;24.30;97183.25;5081881;28;20056;-63
2023/09/09 11:21:44;;;;;;;1.40;1.40;;;;;;;26.65;24.75;97114.75;5083444;28;20059;-64
2023/09/09 11:24:11;;;;;;;1.55;1.55;;;;;;;27.21;24.79;97183.22;5083792;28;20060;-64
2023/09/09 11:26:57;;;;;;;1.60;1.60;;;;;;;27.49;24.10;97181.91;5079269;28;20053;-65
2023/09/09 11:29:24;;;;;;;1.60;1.60;;;;;;;27.88;24.02;97177.97;5064193;28;20718;-65
2023/09/09 11:32:07;;;;;;;1.70;1.70;;;;;;;27.91;23.87;97171.34;5063699;28;20051;-65
2023/09/09 11:34:34;;;;;;;1.73;1.73;;;;;;;26.65;24.18;96927.91;5078872;28;20416;-64
2023/09/09 11:37:02;;;;;;;2.00;2.00;;;;;;;28.41;23.24;97180.19;5063935;28;20052;-64
2023/09/09 11:39:29;;;;;;;1.90;1.90;;;;;;;28.66;22.62;97165.50;5078964;28;20135;-64